Detall de PIREP

Printer-friendly versionPDF version

[2016/11/19 08:56:00]
Flight IATA:CT3254
Pilot Number:012
Company ICAO:CAT
Aircraft Type:B463/A
PAX:100
Aircraft Registration:PAX
Departing Airport: LEPA
Destination Airport: LDZA
Alternate Airport:LOWW
Online: VATSIM
Route:MORSS UM603 RIPAL/N0416F280 UM603 ALG/N0413F290 UL5 VALMA UL865 ANC UM986 KOTOR
Flight Level:F290
No Slew and time accel
No pause
Crash detect
Detect pilot in Cockpit between each 30 and 45 minutes
08:56 Zero fuel Weight: 74011 Lbs, Fuel Weight: 20548 Lbs
08:56 VATSIM:LEPA 190830Z 00000KT 9999 FEW014 14/14 Q1014 NOSIG
08:56 VATSIM:LDZA 190830Z VRB01KT CAVOK 12/08 Q1013 BECMG 23008KT
08:58 Parking Brakes off
09:03 Take-off
09:03 Take off Weight: 94132 Lbs
09:03 Wind: 000º @ 000 Knots Heading: 238º
09:03 POS N39º 33´ 11´´ E002º 43´ 24´´
09:03 Flaps:1 at 158 Knots
09:03 Gear Up: 164 Knots
09:04 Flaps:0 at 189 Knots
09:18 Wind:256º@045 Knots Heading: 053º Ground Speed: 428 Knots Altitude 28061 ft
09:33 Wind:256º@045 Knots Heading: 074º Ground Speed: 476 Knots Altitude 28051 ft
09:48 Wind:241º@038 Knots Heading: 065º Ground Speed: 437 Knots Altitude 28595 ft
09:48 TOC
09:48 Fuel Weight: 14985 Lb
09:48 TOD
09:48 Fuel Weight: 14985 Lb
09:48 TOC
09:48 Fuel Weight: 14983 Lb
10:03 Wind:228º@033 Knots Heading: 070º Ground Speed: 440 Knots Altitude 29035 ft
10:18 Wind:208º@030 Knots Heading: 042º Ground Speed: 438 Knots Altitude 29045 ft
10:33 Wind:219º@046 Knots Heading: 037º Ground Speed: 449 Knots Altitude 29009 ft
10:40 TOD
10:40 Fuel Weight: 10414 Lb
10:48 Wind:215º@044 Knots Heading: 050º Ground Speed: 381 Knots Altitude 14274 ft
10:53 Flaps:1 at 194 Knots
10:55 Flaps:2 at 146 Knots
10:55 Gear Down: 148 Knots
10:55 Flaps:3 at 136 Knots
10:56 Flaps:4 at 140 Knots
10:59 TouchDown:Rate -63 ft/min Speed:121 Knots
10:59 VATSIM:LDZA 191030Z VRB02KT CAVOK 14/10 Q1012 BECMG 23008KT
10:59 Land
10:59 Wind:106º@003 Knots
10:59 Heading: 046º
10:59 Flight Duration: 01:56
10:59 Landing Weight: 83714 Lbs
10:59 POS N45º 44´ 28´´ E016º 03´ 58´´
11:03 Parking brakes on
11:03 Block to Block Duration: 02:05
11:03 Final Fuel: 9563 Lbls
11:03 Spent Fuel: 10985 Lbls
11:03 Flight Length: 781 NM
11:03 TOD Land Length: 92 NM

Exportar CSV

Powered by Drupal - Modified by Danger4k